Time;durP1;ratioP1;P1;durP2;ratioP2;P2;SDS_P1;SDS_P2;PMS_P1;PMS_P2;Temp;Humidity;BMP_temperature;BMP_pressure;BME280_temperature;BME280_humidity;BME280_pressure;Samples;Min_cycle;Max_cycle;Signal;HPM_P1;HPM_P2
2022/04/24 00:01:28;;;;;;;7.47;6.05;;;9.40;99.90;;;;;;5091134;28;20047;-71
2022/04/24 00:03:54;;;;;;;7.90;7.07;;;9.30;99.90;;;;;;5088900;28;20036;-71
2022/04/24 00:06:20;;;;;;;7.38;6.55;;;9.30;99.90;;;;;;5094935;28;20063;-71
2022/04/24 00:08:45;;;;;;;7.20;6.50;;;9.20;99.90;;;;;;5100001;28;20109;-71
2022/04/24 00:11:11;;;;;;;7.45;5.93;;;9.20;99.90;;;;;;5099699;28;21080;-71
2022/04/24 00:13:41;;;;;;;9.40;6.03;;;9.20;99.90;;;;;;5096827;28;20415;-71
2022/04/24 00:16:10;;;;;;;8.43;6.22;;;9.10;99.90;;;;;;5106428;28;20082;-71
2022/04/24 00:18:39;;;;;;;6.93;5.88;;;9.10;99.90;;;;;;5099647;28;20079;-71
2022/04/24 00:21:05;;;;;;;8.82;6.22;;;9.10;99.90;;;;;;5110969;28;20046;-71
2022/04/24 00:23:32;;;;;;;7.80;5.82;;;9.10;99.90;;;;;;5110717;28;20040;-71
2022/04/24 00:25:58;;;;;;;10.82;6.70;;;9.10;99.90;;;;;;5110008;28;20103;-71
2022/04/24 00:28:23;;;;;;;6.70;5.32;;;9.10;99.90;;;;;;5110099;28;20051;-71
2022/04/24 00:30:49;;;;;;;7.22;5.85;;;9.10;99.90;;;;;;5110435;28;20413;-70
2022/04/24 00:33:15;;;;;;;10.23;6.07;;;9.00;99.90;;;;;;5110708;28;20482;-71
2022/04/24 00:35:40;;;;;;;6.78;6.05;;;9.00;99.90;;;;;;5110005;28;20771;-71
2022/04/24 00:38:06;;;;;;;7.03;6.20;;;9.00;99.90;;;;;;5108640;28;20048;-71
2022/04/24 00:40:32;;;;;;;6.28;5.65;;;9.00;99.90;;;;;;5110221;28;20066;-71
2022/04/24 00:42:57;;;;;;;6.53;5.90;;;8.90;99.90;;;;;;5114492;28;20044;-71
2022/04/24 00:45:23;;;;;;;7.57;5.82;;;8.90;99.90;;;;;;5095624;28;20408;-70
2022/04/24 00:47:49;;;;;;;6.20;5.63;;;8.80;99.90;;;;;;5114937;28;20164;-71
2022/04/24 00:50:15;;;;;;;7.95;5.97;;;8.90;99.90;;;;;;5114622;28;20131;-71
2022/04/24 00:52:40;;;;;;;7.90;6.25;;;8.90;99.90;;;;;;5114460;28;20048;-71
2022/04/24 00:55:07;;;;;;;7.13;6.15;;;8.80;99.90;;;;;;5108851;28;20378;-73
2022/04/24 00:57:32;;;;;;;9.55;6.53;;;8.70;99.90;;;;;;5099053;28;20714;-72
2022/04/24 00:59:58;;;;;;;7.93;5.90;;;8.70;99.90;;;;;;5102686;28;20052;-71
2022/04/24 01:02:24;;;;;;;8.30;6.15;;;8.70;99.90;;;;;;5093218;28;20043;-71
2022/04/24 01:04:50;;;;;;;7.57;6.07;;;8.60;99.90;;;;;;5093190;28;20044;-71
2022/04/24 01:07:18;;;;;;;7.63;5.68;;;8.60;99.90;;;;;;5092761;28;20563;-71
2022/04/24 01:09:44;;;;;;;6.35;5.68;;;8.60;99.90;;;;;;5113582;28;20044;-71
2022/04/24 01:12:10;;;;;;;7.38;5.65;;;8.60;99.90;;;;;;5114298;28;20038;-71
2022/04/24 01:14:36;;;;;;;7.65;6.18;;;8.60;99.90;;;;;;5113845;28;20481;-71
2022/04/24 01:17:04;;;;;;;7.55;6.15;;;8.60;99.90;;;;;;5112901;28;20482;-71
2022/04/24 01:19:30;;;;;;;7.55;6.47;;;8.60;99.90;;;;;;5114441;28;20079;-71
2022/04/24 01:21:56;;;;;;;7.22;6.25;;;8.60;99.90;;;;;;5112320;28;20065;-71
2022/04/24 01:24:24;;;;;;;12.65;6.57;;;8.60;99.90;;;;;;5114564;28;20044;-71
2022/04/24 01:26:50;;;;;;;7.47;6.75;;;8.60;99.90;;;;;;5113754;28;20486;-71
2022/04/24 01:29:16;;;;;;;7.63;6.47;;;8.50;99.90;;;;;;5114168;28;20039;-71
2022/04/24 01:31:48;;;;;;;8.75;7.18;;;8.50;99.90;;;;;;5114181;28;20100;-71
2022/04/24 01:34:14;;;;;;;6.45;5.22;;;8.50;99.90;;;;;;5112315;28;20073;-71
2022/04/24 01:36:40;;;;;;;7.63;5.80;;;8.40;99.90;;;;;;5114234;28;20040;-71
2022/04/24 01:39:06;;;;;;;9.23;6.50;;;8.40;99.90;;;;;;5113917;27;20047;-71
2022/04/24 01:41:32;;;;;;;8.73;6.57;;;8.40;99.90;;;;;;5113343;28;20057;-71
2022/04/24 01:43:59;;;;;;;8.27;6.72;;;8.30;99.90;;;;;;5113795;28;20074;-71
2022/04/24 01:46:25;;;;;;;16.80;6.45;;;8.30;99.90;;;;;;5113834;28;20569;-71
2022/04/24 01:48:50;;;;;;;7.80;6.70;;;8.30;99.90;;;;;;5111721;28;20130;-72
2022/04/24 01:51:16;;;;;;;7.25;6.38;;;8.30;99.90;;;;;;5113718;28;20048;-71
2022/04/24 01:53:43;;;;;;;6.63;6.00;;;8.30;99.90;;;;;;5111424;28;20138;-71
2022/04/24 01:56:10;;;;;;;7.15;6.40;;;8.30;99.90;;;;;;5111479;28;20043;-71
2022/04/24 01:58:37;;;;;;;8.18;6.47;;;8.20;99.90;;;;;;5113706;28;20462;-71
2022/04/24 02:01:04;;;;;;;7.78;6.57;;;8.20;99.90;;;;;;5112189;28;20051;-71
2022/04/24 02:03:30;;;;;;;9.05;7.03;;;8.10;99.90;;;;;;5111634;28;20083;-71
2022/04/24 02:05:57;;;;;;;9.70;6.82;;;8.10;99.90;;;;;;5111987;28;20052;-71
2022/04/24 02:08:23;;;;;;;9.43;6.68;;;8.10;99.90;;;;;;5112524;28;20047;-71
2022/04/24 02:10:49;;;;;;;10.73;6.20;;;8.10;99.90;;;;;;5111741;28;20139;-71
2022/04/24 02:13:17;;;;;;;7.90;6.22;;;8.10;99.90;;;;;;5113330;28;20043;-71
2022/04/24 02:15:45;;;;;;;7.70;6.55;;;8.10;99.90;;;;;;5112108;28;20397;-71
2022/04/24 02:18:11;;;;;;;10.40;6.82;;;8.10;99.90;;;;;;5112515;28;20043;-71
2022/04/24 02:20:36;;;;;;;7.88;6.28;;;8.00;99.90;;;;;;5112342;28;20055;-71
2022/04/24 02:23:02;;;;;;;7.45;6.65;;;8.00;99.90;;;;;;5112405;28;20448;-71
2022/04/24 02:25:29;;;;;;;7.60;6.88;;;8.00;99.90;;;;;;5113121;28;20115;-71
2022/04/24 02:27:55;;;;;;;7.93;6.20;;;8.00;99.90;;;;;;5112892;28;20495;-71
2022/04/24 02:30:22;;;;;;;9.18;7.10;;;7.90;99.90;;;;;;5111220;28;20062;-71
2022/04/24 02:32:48;;;;;;;8.23;7.15;;;7.90;99.90;;;;;;5111611;28;20039;-70
2022/04/24 02:35:14;;;;;;;10.73;7.00;;;7.90;99.90;;;;;;5111452;28;20035;-71
2022/04/24 02:37:39;;;;;;;8.60;6.82;;;7.80;99.90;;;;;;5112182;28;20046;-71
2022/04/24 02:40:09;;;;;;;9.65;6.53;;;7.80;99.90;;;;;;5112615;28;20123;-71
2022/04/24 02:42:36;;;;;;;6.70;5.85;;;7.70;99.90;;;;;;5111781;28;20082;-71
2022/04/24 02:45:09;;;;;;;10.10;7.47;;;7.70;99.90;;;;;;5110531;28;20039;-71
2022/04/24 02:47:38;;;;;;;7.82;7.00;;;7.70;99.90;;;;;;5112804;28;20063;-71
2022/04/24 02:50:04;;;;;;;11.13;7.20;;;7.70;99.90;;;;;;5110954;28;20517;-71
2022/04/24 02:52:29;;;;;;;8.63;7.15;;;7.60;99.90;;;;;;5110461;28;20055;-71
2022/04/24 02:54:55;;;;;;;7.38;6.60;;;7.60;99.90;;;;;;5112276;28;20046;-71
2022/04/24 02:57:21;;;;;;;8.10;7.03;;;7.60;99.90;;;;;;5111418;28;20075;-71
2022/04/24 02:59:49;;;;;;;10.02;6.53;;;7.60;99.90;;;;;;5111850;28;20051;-71
2022/04/24 03:02:17;;;;;;;7.57;6.78;;;7.50;99.90;;;;;;5112545;28;20044;-71
2022/04/24 03:04:45;;;;;;;8.77;6.93;;;7.50;99.90;;;;;;5110965;28;20112;-71
2022/04/24 03:07:11;;;;;;;7.40;6.60;;;7.50;99.90;;;;;;5111336;28;20085;-71
2022/04/24 03:09:37;;;;;;;7.45;6.10;;;7.50;99.90;;;;;;5111163;28;20450;-71
2022/04/24 03:12:03;;;;;;;11.00;7.05;;;7.50;99.90;;;;;;5110765;28;20082;-71
2022/04/24 03:14:28;;;;;;;7.20;6.47;;;7.50;99.90;;;;;;5112076;28;20058;-71
2022/04/24 03:16:54;;;;;;;16.25;7.22;;;7.40;99.90;;;;;;5112017;28;20075;-71
2022/04/24 03:19:20;;;;;;;13.80;6.90;;;7.40;99.90;;;;;;5110019;28;20044;-71
2022/04/24 03:21:45;;;;;;;9.90;6.78;;;7.40;99.90;;;;;;5111055;28;20446;-71
2022/04/24 03:24:11;;;;;;;11.75;7.28;;;7.40;99.90;;;;;;5110734;28;20126;-71
2022/04/24 03:26:36;;;;;;;8.65;6.68;;;7.40;99.90;;;;;;5110117;28;20082;-71
2022/04/24 03:29:02;;;;;;;7.05;6.35;;;7.40;99.90;;;;;;5111698;28;20058;-71
2022/04/24 03:31:28;;;;;;;14.80;6.55;;;7.30;99.90;;;;;;5112114;28;20043;-71
2022/04/24 03:33:54;;;;;;;9.13;6.70;;;7.30;99.90;;;;;;5110886;28;20479;-71
2022/04/24 03:36:19;;;;;;;9.13;7.25;;;7.30;99.90;;;;;;5111884;28;20076;-71
2022/04/24 03:38:45;;;;;;;7.07;6.28;;;7.30;99.90;;;;;;5111684;28;20674;-70
2022/04/24 03:41:11;;;;;;;6.97;5.97;;;7.30;99.90;;;;;;5110627;28;20082;-71
2022/04/24 03:43:36;;;;;;;8.57;6.75;;;7.40;99.90;;;;;;5111859;28;20039;-71
2022/04/24 03:46:05;;;;;;;8.70;7.30;;;7.30;99.90;;;;;;5111509;28;20138;-71
2022/04/24 03:48:31;;;;;;;8.30;7.20;;;7.40;99.90;;;;;;5109574;28;20052;-71
2022/04/24 03:50:57;;;;;;;7.55;6.00;;;7.30;99.90;;;;;;5109821;28;20055;-71
2022/04/24 03:53:22;;;;;;;9.68;7.00;;;7.30;99.90;;;;;;5111392;28;20048;-71
2022/04/24 03:55:48;;;;;;;8.43;5.72;;;7.30;99.90;;;;;;5110747;28;20390;-71
2022/04/24 03:58:14;;;;;;;7.97;6.70;;;7.30;99.90;;;;;;5110223;28;20075;-71
2022/04/24 04:00:39;;;;;;;8.60;7.22;;;7.20;99.90;;;;;;5110424;28;20047;-71
2022/04/24 04:03:05;;;;;;;7.13;6.25;;;7.20;99.90;;;;;;5110530;28;20497;-71
2022/04/24 04:05:30;;;;;;;10.13;6.07;;;7.20;99.90;;;;;;5111524;28;20101;-71
2022/04/24 04:07:56;;;;;;;9.40;6.50;;;7.20;99.90;;;;;;5111003;28;20051;-71
2022/04/24 04:10:22;;;;;;;7.85;6.43;;;7.20;99.90;;;;;;5101335;28;20058;-71
2022/04/24 04:12:49;;;;;;;7.55;6.78;;;7.20;99.90;;;;;;5091803;28;20437;-71
2022/04/24 04:15:15;;;;;;;7.53;6.03;;;7.20;99.90;;;;;;5109349;28;20482;-71
2022/04/24 04:17:40;;;;;;;6.80;5.95;;;7.10;99.90;;;;;;5090136;28;20044;-71
2022/04/24 04:20:11;;;;;;;8.15;5.72;;;7.20;99.90;;;;;;5089369;28;20044;-71
2022/04/24 04:22:48;;;;;;;6.28;5.65;;;7.10;99.90;;;;;;5101551;28;20071;-71
2022/04/24 04:25:14;;;;;;;8.43;6.45;;;7.10;99.90;;;;;;5106298;28;20036;-71
2022/04/24 04:27:40;;;;;;;9.30;6.97;;;7.10;99.90;;;;;;5090887;28;20047;-71
2022/04/24 04:30:06;;;;;;;10.25;5.88;;;7.10;99.90;;;;;;5088769;28;20043;-71
2022/04/24 04:32:31;;;;;;;7.60;6.45;;;7.30;99.90;;;;;;5089314;28;20051;-71
2022/04/24 04:34:57;;;;;;;11.32;6.55;;;7.10;99.90;;;;;;5092854;28;20401;-71
2022/04/24 04:37:22;;;;;;;8.88;6.85;;;7.10;99.90;;;;;;5098929;28;20050;-70
2022/04/24 04:39:49;;;;;;;8.38;6.53;;;7.10;99.90;;;;;;5090425;28;20571;-72
2022/04/24 04:42:14;;;;;;;7.95;6.72;;;7.10;99.90;;;;;;5101166;28;20040;-71
2022/04/24 04:44:40;;;;;;;9.10;6.35;;;7.10;99.90;;;;;;5108995;28;20035;-71
2022/04/24 04:47:06;;;;;;;8.32;6.18;;;7.10;99.90;;;;;;5102021;28;20043;-71
2022/04/24 04:49:32;;;;;;;9.02;6.30;;;7.10;99.90;;;;;;5096656;28;20040;-71
2022/04/24 04:51:57;;;;;;;7.75;6.55;;;7.10;99.90;;;;;;5092460;28;20123;-71
2022/04/24 04:54:23;;;;;;;8.32;6.45;;;7.10;99.90;;;;;;5109578;28;20545;-71
2022/04/24 04:56:48;;;;;;;9.68;7.15;;;7.10;99.90;;;;;;5109595;28;20047;-71
2022/04/24 04:59:14;;;;;;;12.23;7.13;;;7.10;99.90;;;;;;5108869;28;20044;-71
2022/04/24 05:01:40;;;;;;;9.30;7.13;;;7.20;99.90;;;;;;5106154;28;20048;-71
2022/04/24 05:04:05;;;;;;;9.50;7.20;;;7.20;99.90;;;;;;5089097;28;20043;-71
2022/04/24 05:06:32;;;;;;;11.30;6.68;;;7.20;99.90;;;;;;5088669;28;20522;-71
2022/04/24 05:08:57;;;;;;;7.20;6.50;;;7.20;99.90;;;;;;5088815;28;20050;-71
2022/04/24 05:11:23;;;;;;;8.48;6.28;;;7.30;99.90;;;;;;5089407;28;20044;-71
2022/04/24 05:13:48;;;;;;;9.85;7.60;;;7.30;99.90;;;;;;5088288;28;20044;-71
2022/04/24 05:16:14;;;;;;;9.57;7.75;;;7.30;99.90;;;;;;5090133;28;20390;-71
2022/04/24 05:18:39;;;;;;;9.98;7.15;;;7.30;99.90;;;;;;5090177;28;20490;-70
2022/04/24 05:21:05;;;;;;;8.07;6.97;;;7.30;99.90;;;;;;5108576;28;20039;-72
2022/04/24 05:23:31;;;;;;;8.50;7.25;;;7.30;99.90;;;;;;5089983;28;20101;-71
2022/04/24 05:25:58;;;;;;;10.27;7.38;;;7.30;99.90;;;;;;5100258;28;20054;-71
2022/04/24 05:28:23;;;;;;;11.93;7.65;;;7.40;99.90;;;;;;5107641;28;20036;-71
2022/04/24 05:30:49;;;;;;;13.73;7.28;;;7.40;99.90;;;;;;5110461;28;20098;-71
2022/04/24 05:33:18;;;;;;;14.13;8.40;;;7.40;99.90;;;;;;5111754;28;20047;-71
2022/04/24 05:35:44;;;;;;;11.32;7.93;;;7.50;99.90;;;;;;5112930;28;20043;-71
2022/04/24 05:38:11;;;;;;;11.05;7.55;;;7.60;99.90;;;;;;5114021;28;20047;-71
2022/04/24 05:40:37;;;;;;;9.73;7.75;;;7.60;99.90;;;;;;5113502;28;20058;-71
2022/04/24 05:43:03;;;;;;;12.43;7.20;;;7.60;99.90;;;;;;5112504;28;20060;-71
2022/04/24 05:45:34;;;;;;;16.58;8.38;;;7.70;99.90;;;;;;5112702;28;20044;-71
2022/04/24 05:48:00;;;;;;;10.65;8.35;;;7.80;99.90;;;;;;5109059;28;20039;-71
2022/04/24 05:50:26;;;;;;;12.80;8.07;;;7.80;99.90;;;;;;5102551;28;20056;-71
2022/04/24 05:52:56;;;;;;;11.02;7.22;;;7.90;99.90;;;;;;5093220;28;20047;-71
2022/04/24 05:55:22;;;;;;;10.70;7.50;;;8.00;99.90;;;;;;5092796;28;20071;-71
2022/04/24 05:57:50;;;;;;;12.45;7.95;;;8.10;99.90;;;;;;5103173;28;20119;-71
2022/04/24 06:00:19;;;;;;;10.90;7.65;;;8.10;99.90;;;;;;5095849;28;20383;-71
2022/04/24 06:02:45;;;;;;;10.32;7.25;;;8.10;99.90;;;;;;5092761;28;20040;-71
2022/04/24 06:05:11;;;;;;;8.57;7.25;;;8.30;99.90;;;;;;5093713;28;20066;-70
2022/04/24 06:07:37;;;;;;;10.90;7.50;;;8.30;99.90;;;;;;5091656;28;20039;-71
2022/04/24 06:10:04;;;;;;;10.68;6.93;;;8.30;99.90;;;;;;5107365;28;20427;-71
2022/04/24 06:12:30;;;;;;;8.68;6.63;;;8.40;99.90;;;;;;5111263;28;20393;-71
2022/04/24 06:15:05;;;;;;;11.38;7.03;;;8.50;99.90;;;;;;5094822;28;20044;-71
2022/04/24 06:17:30;;;;;;;8.15;5.93;;;8.50;99.90;;;;;;5091675;28;20051;-70
2022/04/24 06:19:56;;;;;;;6.97;6.05;;;8.50;99.90;;;;;;5109776;28;20051;-70
2022/04/24 06:22:21;;;;;;;8.25;6.20;;;8.60;99.90;;;;;;5112576;28;20389;-70
2022/04/24 06:24:49;;;;;;;7.13;5.45;;;8.60;99.90;;;;;;5113205;28;20122;-71
2022/04/24 06:27:15;;;;;;;6.82;5.57;;;8.70;99.90;;;;;;5113056;28;20040;-71
2022/04/24 06:29:41;;;;;;;8.07;5.57;;;8.70;99.90;;;;;;5112305;28;20044;-71
2022/04/24 06:32:08;;;;;;;5.47;4.65;;;8.80;99.90;;;;;;5112840;28;20048;-70
2022/04/24 06:34:33;;;;;;;7.88;4.90;;;8.90;99.90;;;;;;5112413;28;20123;-70
2022/04/24 06:36:59;;;;;;;7.22;3.83;;;9.00;99.90;;;;;;5096784;28;20132;-70
2022/04/24 06:39:25;;;;;;;7.20;4.07;;;9.00;99.90;;;;;;5093844;28;20075;-70
2022/04/24 06:41:50;;;;;;;9.30;4.90;;;9.10;99.90;;;;;;5106502;28;20044;-72
2022/04/24 06:44:16;;;;;;;6.80;3.75;;;9.10;99.90;;;;;;5100451;28;20211;-71
2022/04/24 06:46:43;;;;;;;8.13;3.97;;;9.20;99.90;;;;;;5096541;28;20073;-70
2022/04/24 06:49:12;;;;;;;6.65;3.88;;;9.30;99.90;;;;;;5111201;28;20040;-70
2022/04/24 06:51:37;;;;;;;3.88;2.67;;;9.30;99.90;;;;;;5111029;28;20044;-70
2022/04/24 06:54:03;;;;;;;4.38;3.10;;;9.40;99.90;;;;;;5112352;28;20410;-71
2022/04/24 06:56:28;;;;;;;14.57;3.33;;;9.50;99.90;;;;;;5111230;28;20436;-70
2022/04/24 06:58:54;;;;;;;6.70;3.17;;;9.60;99.90;;;;;;5110380;28;20097;-70
2022/04/24 07:01:21;;;;;;;6.35;3.10;;;9.70;99.90;;;;;;5099184;28;20036;-70
2022/04/24 07:03:47;;;;;;;3.75;2.85;;;9.70;99.90;;;;;;5101227;28;20134;-70
2022/04/24 07:06:12;;;;;;;3.90;3.05;;;9.80;99.90;;;;;;5106747;28;20131;-70
2022/04/24 07:08:38;;;;;;;4.28;2.55;;;9.90;99.90;;;;;;5092108;28;20090;-70
2022/04/24 07:11:03;;;;;;;3.47;2.42;;;10.00;99.90;;;;;;5104159;28;20036;-71
2022/04/24 07:13:29;;;;;;;4.32;2.97;;;10.20;99.90;;;;;;5095893;28;20429;-71
2022/04/24 07:15:55;;;;;;;4.93;2.92;;;10.30;99.90;;;;;;5099883;28;20407;-71
2022/04/24 07:18:21;;;;;;;3.60;2.10;;;10.40;99.90;;;;;;5089719;28;20137;-71
2022/04/24 07:20:46;;;;;;;3.03;2.25;;;10.40;99.90;;;;;;5100287;28;20044;-70
2022/04/24 07:23:12;;;;;;;4.22;2.75;;;10.50;99.90;;;;;;5089992;28;20520;-69
2022/04/24 07:25:43;;;;;;;4.72;2.47;;;10.60;99.90;;;;;;5101983;28;20039;-70
2022/04/24 07:28:13;;;;;;;3.67;2.35;;;10.80;99.90;;;;;;5110351;28;20048;-71
2022/04/24 07:30:39;;;;;;;2.97;1.88;;;10.90;99.90;;;;;;5111024;28;20162;-70
2022/04/24 07:33:07;;;;;;;9.10;2.63;;;10.90;99.90;;;;;;5111149;28;20039;-71
2022/04/24 07:35:38;;;;;;;1.88;1.65;;;11.10;99.90;;;;;;5103994;28;20105;-71
2022/04/24 07:38:04;;;;;;;2.60;2.05;;;11.20;99.90;;;;;;5109423;28;20518;-71
2022/04/24 07:40:32;;;;;;;3.70;2.50;;;11.30;99.90;;;;;;5097694;28;20062;-71
2022/04/24 07:43:00;;;;;;;2.67;2.33;;;11.50;99.90;;;;;;5094842;28;20553;-71
2022/04/24 07:45:30;;;;;;;2.65;2.00;;;11.60;99.90;;;;;;5092794;28;20683;-71
2022/04/24 07:47:56;;;;;;;4.00;2.17;;;11.70;99.90;;;;;;5098403;28;20044;-71
2022/04/24 07:50:28;;;;;;;2.80;2.30;;;11.80;99.90;;;;;;5090377;28;20548;-70
2022/04/24 07:52:54;;;;;;;3.22;2.28;;;11.90;99.90;;;;;;5090903;28;20036;-71
2022/04/24 07:55:23;;;;;;;5.03;1.80;;;12.00;99.90;;;;;;5089248;28;20052;-71
2022/04/24 07:57:50;;;;;;;3.47;2.75;;;12.00;99.90;;;;;;5090254;28;20104;-71
2022/04/24 08:00:17;;;;;;;4.13;2.30;;;12.10;99.90;;;;;;5091300;28;20040;-70
2022/04/24 08:03:03;;;;;;;5.57;3.13;;;12.10;99.90;;;;;;5089519;28;20083;-71
2022/04/24 08:05:30;;;;;;;3.90;2.58;;;12.10;99.90;;;;;;5100219;28;20032;-72
2022/04/24 08:07:57;;;;;;;4.78;2.90;;;12.20;99.90;;;;;;5094716;28;20070;-72
2022/04/24 08:10:25;;;;;;;5.80;2.85;;;12.30;99.90;;;;;;5107536;28;20047;-74
2022/04/24 08:12:50;;;;;;;6.47;3.35;;;12.40;99.90;;;;;;5107808;28;20054;-75
2022/04/24 08:15:17;;;;;;;5.82;2.72;;;12.40;99.90;;;;;;5109824;28;20056;-70
2022/04/24 08:17:43;;;;;;;2.47;2.22;;;12.50;99.90;;;;;;5111368;28;20230;-71
2022/04/24 08:20:10;;;;;;;7.10;3.00;;;12.50;99.90;;;;;;5110931;28;20040;-70
2022/04/24 08:22:41;;;;;;;3.70;2.60;;;12.50;99.90;;;;;;5109505;28;20441;-71
2022/04/24 08:25:08;;;;;;;6.40;2.85;;;12.60;99.90;;;;;;5095295;28;20051;-69
2022/04/24 08:27:34;;;;;;;3.60;2.33;;;12.60;99.90;;;;;;5108631;28;20043;-70
2022/04/24 08:30:00;;;;;;;3.85;2.88;;;12.60;99.90;;;;;;5108849;28;20055;-70
2022/04/24 08:32:26;;;;;;;4.50;2.60;;;12.80;99.90;;;;;;5097491;28;20044;-71
2022/04/24 08:34:52;;;;;;;4.50;2.42;;;12.80;99.90;;;;;;5101088;28;20048;-70
2022/04/24 08:37:17;;;;;;;3.65;2.55;;;12.90;99.90;;;;;;5109987;28;20088;-75
2022/04/24 08:39:43;;;;;;;3.83;2.80;;;12.90;99.90;;;;;;5092488;28;20048;-72
2022/04/24 08:42:09;;;;;;;3.47;2.90;;;13.00;99.90;;;;;;5102612;28;20040;-72
2022/04/24 08:44:36;;;;;;;2.78;2.50;;;13.10;99.90;;;;;;5096050;28;20087;-76
2022/04/24 08:47:03;;;;;;;6.70;3.30;;;13.10;99.90;;;;;;5109006;28;20047;-75
2022/04/24 08:49:39;;;;;;;3.47;2.65;;;13.10;99.90;;;;;;5110713;28;20126;-82
2022/04/24 08:52:05;;;;;;;8.68;3.38;;;13.20;99.90;;;;;;5110274;28;20081;-79
2022/04/24 08:54:32;;;;;;;4.45;2.80;;;13.20;99.90;;;;;;5109766;28;20535;-82
2022/04/24 08:56:58;;;;;;;3.90;2.97;;;13.30;99.90;;;;;;5098753;28;20040;-76
2022/04/24 08:59:24;;;;;;;4.30;2.90;;;13.40;99.90;;;;;;5108994;28;20405;-74
2022/04/24 09:01:52;;;;;;;7.07;3.20;;;13.60;99.90;;;;;;5111647;28;20038;-80
2022/04/24 09:04:19;;;;;;;4.88;2.95;;;13.60;99.90;;;;;;5113581;28;20465;-75
2022/04/24 09:06:58;;;;;;;4.00;2.88;;;13.60;99.90;;;;;;5113420;28;20051;-75
2022/04/24 09:09:24;;;;;;;4.88;2.88;;;13.50;99.90;;;;;;5114374;28;20039;-74
2022/04/24 09:11:50;;;;;;;4.70;2.70;;;13.50;99.90;;;;;;5111785;28;20085;-75
2022/04/24 09:14:17;;;;;;;4.72;3.17;;;13.60;99.90;;;;;;5092189;28;20079;-74
2022/04/24 09:16:47;;;;;;;5.85;2.50;;;13.70;99.90;;;;;;5113524;28;20058;-74
2022/04/24 09:19:25;;;;;;;4.00;2.85;;;13.70;99.90;;;;;;5109715;28;20139;-73
2022/04/24 09:22:06;;;;;;;4.47;3.00;;;13.70;99.90;;;;;;5112038;28;20055;-74
2022/04/24 09:25:01;;;;;;;5.03;3.15;;;13.70;99.90;;;;;;5106632;28;20035;-74
2022/04/24 09:27:32;;;;;;;3.65;2.40;;;13.70;99.90;;;;;;5102801;28;20138;-74
2022/04/24 09:30:00;;;;;;;5.18;2.65;;;13.70;99.90;;;;;;5092127;28;20487;-75
2022/04/24 09:32:28;;;;;;;3.53;2.40;;;13.60;99.90;;;;;;5101972;28;20052;-76
2022/04/24 09:34:55;;;;;;;4.00;2.88;;;13.70;99.90;;;;;;5099339;28;20134;-76
2022/04/24 09:37:20;;;;;;;3.70;2.47;;;13.80;99.90;;;;;;5092870;28;20071;-73
2022/04/24 09:39:47;;;;;;;2.78;2.20;;;13.90;99.90;;;;;;5101556;28;20075;-77
2022/04/24 09:42:17;;;;;;;3.28;2.53;;;14.00;99.90;;;;;;5099101;28;20082;-75
2022/04/24 09:44:52;;;;;;;2.65;1.85;;;14.10;99.90;;;;;;5096506;28;20063;-76
2022/04/24 09:47:25;;;;;;;3.78;2.58;;;14.20;99.90;;;;;;5089256;28;20067;-75
2022/04/24 09:49:51;;;;;;;2.65;1.83;;;14.20;99.90;;;;;;5089822;28;20891;-75
2022/04/24 09:52:25;;;;;;;4.05;2.53;;;14.20;99.90;;;;;;5091323;28;20051;-75
2022/04/24 09:54:53;;;;;;;3.33;2.20;;;14.20;98.60;;;;;;5091020;28;20138;-76
2022/04/24 09:57:22;;;;;;;3.05;2.20;;;14.20;97.10;;;;;;5093518;28;20047;-76
2022/04/24 09:59:50;;;;;;;6.35;2.60;;;14.20;98.10;;;;;;5093520;28;20127;-76
2022/04/24 10:02:17;;;;;;;4.30;2.33;;;14.30;99.70;;;;;;5090788;28;20050;-75
2022/04/24 10:04:48;;;;;;;2.88;2.28;;;14.40;99.90;;;;;;5092820;28;20563;-75
2022/04/24 10:07:16;;;;;;;4.07;2.42;;;14.50;99.90;;;;;;5092343;28;20048;-76
2022/04/24 10:09:44;;;;;;;6.20;2.70;;;14.50;99.90;;;;;;5093456;28;20056;-75
2022/04/24 10:12:21;;;;;;;7.03;2.38;;;14.50;99.90;;;;;;5091500;28;20515;-76
2022/04/24 10:14:51;;;;;;;5.30;2.50;;;14.60;99.90;;;;;;5091851;28;20044;-76
2022/04/24 10:18:01;;;;;;;6.68;2.92;;;14.70;99.90;;;;;;5093209;28;20130;-76
2022/04/24 10:20:42;;;;;;;5.25;2.60;;;14.70;99.80;;;;;;5053303;28;20070;-76
2022/04/24 10:23:09;;;;;;;5.40;2.47;;;14.70;99.90;;;;;;5091109;28;20048;-76
2022/04/24 10:25:42;;;;;;;6.60;2.45;;;14.80;99.10;;;;;;5091926;28;20486;-76
2022/04/24 10:28:19;;;;;;;5.57;2.80;;;14.90;99.90;;;;;;5090997;28;20043;-75
2022/04/24 10:30:57;;;;;;;7.60;2.58;;;15.00;99.50;;;;;;5091573;28;20047;-76
2022/04/24 10:33:24;;;;;;;8.55;2.88;;;15.10;99.90;;;;;;5091364;28;20726;-76
2022/04/24 10:35:59;;;;;;;3.80;2.50;;;15.10;99.60;;;;;;5092118;28;20056;-76
2022/04/24 10:38:28;;;;;;;8.15;3.65;;;14.90;99.30;;;;;;5092853;28;20040;-75
2022/04/24 10:41:05;;;;;;;3.90;2.38;;;14.60;99.90;;;;;;5091046;28;20410;-76
2022/04/24 10:43:35;;;;;;;3.55;2.65;;;14.50;99.90;;;;;;5091840;28;20146;-75
2022/04/24 10:46:00;;;;;;;6.95;3.35;;;14.60;99.90;;;;;;5091129;28;20058;-75
2022/04/24 10:48:34;;;;;;;5.47;3.63;;;14.60;99.90;;;;;;5091534;28;20127;-75
2022/04/24 10:51:00;;;;;;;4.18;3.10;;;14.60;99.90;;;;;;5091413;28;20055;-75
2022/04/24 10:53:25;;;;;;;5.75;2.78;;;14.70;99.90;;;;;;5092440;28;20054;-75
2022/04/24 10:56:04;;;;;;;7.70;3.38;;;14.60;99.90;;;;;;5092146;28;20118;-76
2022/04/24 10:58:29;;;;;;;5.88;3.47;;;14.60;99.90;;;;;;5090566;28;20051;-75
2022/04/24 11:01:09;;;;;;;9.80;4.13;;;14.50;99.90;;;;;;5091996;28;20044;-76
2022/04/24 11:03:40;;;;;;;6.90;3.40;;;14.50;99.90;;;;;;5091659;28;20051;-75
2022/04/24 11:06:21;;;;;;;8.07;3.58;;;14.60;99.90;;;;;;5090912;28;20067;-75
2022/04/24 11:08:47;;;;;;;6.63;3.58;;;14.70;99.90;;;;;;5091078;28;20452;-75
2022/04/24 11:11:14;;;;;;;7.03;3.72;;;14.60;99.90;;;;;;5089691;28;20131;-79
2022/04/24 11:13:39;;;;;;;6.80;4.00;;;14.60;99.90;;;;;;5090836;28;20454;-75
2022/04/24 11:16:06;;;;;;;4.60;3.63;;;14.70;99.90;;;;;;5090456;28;20082;-75
2022/04/24 11:18:33;;;;;;;7.97;4.07;;;14.80;99.90;;;;;;5091194;28;20482;-76
2022/04/24 11:21:06;;;;;;;5.32;3.95;;;14.80;99.90;;;;;;5090311;28;20044;-75
2022/04/24 11:23:37;;;;;;;12.30;4.57;;;14.80;99.90;;;;;;5090859;28;20512;-76
2022/04/24 11:26:08;;;;;;;7.10;4.22;;;14.80;99.90;;;;;;5090888;28;20058;-75
2022/04/24 11:28:42;;;;;;;5.30;4.32;;;14.70;99.90;;;;;;5091780;28;20062;-75
2022/04/24 11:31:22;;;;;;;5.47;4.03;;;14.60;99.90;;;;;;5090458;28;20051;-76
2022/04/24 11:33:50;;;;;;;6.70;4.13;;;14.60;99.90;;;;;;5090783;28;20036;-76
2022/04/24 11:36:16;;;;;;;5.28;3.75;;;14.60;99.90;;;;;;5090215;28;20055;-76
2022/04/24 11:38:44;;;;;;;7.32;4.05;;;14.60;99.90;;;;;;5089364;28;20048;-76
2022/04/24 11:41:14;;;;;;;10.20;4.80;;;14.60;99.90;;;;;;5089960;28;20429;-75
2022/04/24 11:43:41;;;;;;;11.07;4.47;;;14.70;99.90;;;;;;5091663;28;20050;-75
2022/04/24 11:51:34;;;;;;;5.82;3.53;;;14.60;99.90;;;;;;5091202;28;20539;-75
2022/04/24 11:54:01;;;;;;;5.63;4.07;;;14.60;99.90;;;;;;5072261;28;20044;-75
2022/04/24 11:56:27;;;;;;;4.20;3.72;;;14.60;99.90;;;;;;5091300;28;20555;-75
2022/04/24 11:59:14;;;;;;;4.45;3.67;;;14.40;99.90;;;;;;5089671;28;20052;-76
2022/04/24 12:01:40;;;;;;;8.23;4.22;;;14.40;99.90;;;;;;5089258;28;20048;-76
2022/04/24 12:04:06;;;;;;;8.52;4.90;;;14.50;99.90;;;;;;5089965;28;20159;-75
2022/04/24 12:06:32;;;;;;;6.10;4.30;;;14.40;99.90;;;;;;5091268;28;20130;-75
2022/04/24 12:09:06;;;;;;;5.75;3.90;;;14.40;99.90;;;;;;5088929;28;20075;-75
2022/04/24 12:11:32;;;;;;;6.55;3.78;;;14.50;99.90;;;;;;5089847;28;20090;-75
2022/04/24 12:14:26;;;;;;;4.22;3.72;;;14.50;99.90;;;;;;5088914;28;20103;-75
2022/04/24 12:16:55;;;;;;;6.78;4.70;;;14.50;99.90;;;;;;5089636;28;20101;-75
2022/04/24 12:19:21;;;;;;;6.13;4.28;;;14.60;99.90;;;;;;5089956;28;20129;-75
2022/04/24 12:21:49;;;;;;;5.82;4.30;;;14.70;99.90;;;;;;5090086;28;20043;-75
2022/04/24 12:24:18;;;;;;;6.70;4.38;;;14.70;99.90;;;;;;5090748;28;20044;-75
2022/04/24 12:26:47;;;;;;;4.65;3.75;;;14.60;99.90;;;;;;5091072;28;20044;-76
2022/04/24 12:29:12;;;;;;;10.07;4.15;;;14.50;99.90;;;;;;5090014;28;20047;-75
2022/04/24 12:31:38;;;;;;;5.38;3.83;;;14.50;99.90;;;;;;5090927;28;20036;-75
2022/04/24 12:34:04;;;;;;;9.23;4.10;;;14.70;99.90;;;;;;5090501;28;20055;-75
2022/04/24 12:36:29;;;;;;;6.82;3.83;;;14.80;99.90;;;;;;5089359;28;20090;-75
2022/04/24 12:38:58;;;;;;;8.70;4.40;;;14.90;99.90;;;;;;5093275;28;20140;-75
2022/04/24 12:41:27;;;;;;;7.57;4.05;;;14.90;99.90;;;;;;5094822;28;20501;-74
2022/04/24 12:44:03;;;;;;;8.27;3.70;;;14.80;99.90;;;;;;5092817;28;20115;-76
2022/04/24 12:46:29;;;;;;;6.10;4.03;;;14.70;99.90;;;;;;5096262;28;20055;-75
2022/04/24 12:48:55;;;;;;;6.18;3.70;;;14.70;99.90;;;;;;5102642;28;20044;-75
2022/04/24 12:51:25;;;;;;;6.10;3.70;;;14.60;99.90;;;;;;5103228;28;20080;-75
2022/04/24 12:53:53;;;;;;;5.68;3.47;;;14.80;99.90;;;;;;5097442;28;20129;-75
2022/04/24 12:56:19;;;;;;;3.85;3.33;;;14.80;99.90;;;;;;5095635;28;20064;-76
2022/04/24 12:58:45;;;;;;;6.55;4.03;;;14.70;99.90;;;;;;5101529;28;20097;-73